Vanua Mbalavu, Fiji
Current Conditions -  °F | °C
As of 8:00 PM on Sunday 23 Nov 2014 (Local Time) from NFNA Reporting Station
Scattered Clouds Scattered Clouds  
Wind Chill: 77°   Ceiling: Unl
Heat Index: 79°   Visibility: 6mi
Dew Point: 70°   Wind: 5mph
Humidity: 78%   Direction: 140°SE
Pressure: 29.91"   Gusts: NA
Location:  17.25°S, 178.92°W
Report Text: NFNA 230800Z 14004KT 9999 SCT020 25/21 Q1013
Loading
Personal Weather Stations






























Interactive Weather Map New forecast layout! Learn more

10-Day Weather Forecast

Advertisements
Track Severe Weather on mobile